RXA3881 YMML-YKII
Flight info
| Callsign | RXA3881 |
|---|---|
| Flight time | 0h 43m |
| Altitude | 14000 |
| Route | MENOG W405 KII |
| Aircraft | SF34/M-SDFGR/S |
Departure
| Time | 2026-04-19 04:55 |
|---|---|
| Airport | Melbourne Airport (YMML) |
Arrival
| Time | 2026-04-19 05:38 |
|---|---|
| Airport | King Island Airport (YKII) |
| Time | Latitude | Longitude | Altitude | Speed | Heading |
|---|---|---|---|---|---|
| 2026-04-19 04:11 | -37.67643 | 144.84468 | 350 ft | 0 kts | 81° |
| 2026-04-19 04:45 | -37.67643 | 144.84469 | 350 ft | 0 kts | 87° |
| 2026-04-19 04:46 | -37.67644 | 144.84471 | 357 ft | 2 kts | 100° |
| 2026-04-19 04:46 | -37.67667 | 144.84446 | 350 ft | 13 kts | 262° |
| 2026-04-19 04:46 | -37.67676 | 144.84392 | 350 ft | 0 kts | 247° |
| 2026-04-19 04:46 | -37.67681 | 144.84379 | 350 ft | 0 kts | 242° |
| 2026-04-19 04:47 | -37.67682 | 144.84375 | 350 ft | 0 kts | 269° |
| 2026-04-19 04:47 | -37.67656 | 144.84355 | 357 ft | 13 kts | 353° |
| 2026-04-19 04:47 | -37.67516 | 144.84329 | 355 ft | 25 kts | 351° |
| 2026-04-19 04:48 | -37.67349 | 144.84298 | 361 ft | 12 kts | 353° |
| 2026-04-19 04:48 | -37.67266 | 144.84282 | 361 ft | 0 kts | 351° |
| 2026-04-19 04:48 | -37.67233 | 144.84276 | 362 ft | 10 kts | 353° |
| 2026-04-19 04:48 | -37.67132 | 144.84258 | 366 ft | 19 kts | 351° |
| 2026-04-19 04:49 | -37.66969 | 144.84226 | 368 ft | 28 kts | 350° |
| 2026-04-19 04:49 | -37.66904 | 144.84213 | 369 ft | 11 kts | 351° |
| 2026-04-19 04:49 | -37.66892 | 144.84212 | 369 ft | 4 kts | 356° |
| 2026-04-19 04:49 | -37.66816 | 144.84199 | 370 ft | 17 kts | 352° |
| 2026-04-19 04:50 | -37.66736 | 144.84185 | 371 ft | 20 kts | 349° |
| 2026-04-19 04:50 | -37.66561 | 144.84203 | 368 ft | 21 kts | 47° |
| 2026-04-19 04:50 | -37.66518 | 144.84387 | 354 ft | 16 kts | 80° |
| 2026-04-19 04:50 | -37.66493 | 144.84595 | 337 ft | 31 kts | 82° |
| 2026-04-19 04:51 | -37.66444 | 144.84784 | 326 ft | 21 kts | 16° |
| 2026-04-19 04:51 | -37.66388 | 144.84787 | 327 ft | 0 kts | 359° |
| 2026-04-19 04:52 | -37.66376 | 144.84787 | 326 ft | 6 kts | 359° |
| 2026-04-19 04:52 | -37.66291 | 144.84786 | 327 ft | 18 kts | 359° |
| 2026-04-19 04:52 | -37.66218 | 144.84668 | 335 ft | 10 kts | 274° |
| 2026-04-19 04:53 | -37.66218 | 144.84665 | 335 ft | 0 kts | 276° |
| 2026-04-19 04:54 | -37.66204 | 144.84434 | 348 ft | 54 kts | 274° |
| 2026-04-19 04:54 | -37.66163 | 144.83735 | 391 ft | 103 kts | 274° |
| 2026-04-19 04:54 | -37.66096 | 144.82674 | 457 ft | 139 kts | 275° |
| 2026-04-19 04:54 | -37.65997 | 144.81411 | 792 ft | 150 kts | 279° |
| 2026-04-19 04:55 | -37.65761 | 144.80073 | 1157 ft | 163 kts | 283° |
| 2026-04-19 04:55 | -37.65501 | 144.78629 | 1523 ft | 174 kts | 282° |
| 2026-04-19 04:55 | -37.65246 | 144.77110 | 1895 ft | 180 kts | 282° |
| 2026-04-19 04:55 | -37.64987 | 144.75549 | 2269 ft | 183 kts | 282° |
| 2026-04-19 04:56 | -37.65037 | 144.73959 | 2619 ft | 189 kts | 246° |
| 2026-04-19 04:56 | -37.65933 | 144.72727 | 2982 ft | 199 kts | 208° |
| 2026-04-19 04:56 | -37.67312 | 144.72450 | 3352 ft | 208 kts | 171° |
| 2026-04-19 04:56 | -37.68694 | 144.73076 | 3725 ft | 214 kts | 158° |
| 2026-04-19 04:57 | -37.70060 | 144.73863 | 4103 ft | 217 kts | 157° |
| 2026-04-19 04:57 | -37.71432 | 144.74666 | 4479 ft | 218 kts | 158° |
| 2026-04-19 04:57 | -37.72808 | 144.75476 | 4922 ft | 216 kts | 158° |
| 2026-04-19 04:57 | -37.74138 | 144.76264 | 5406 ft | 212 kts | 158° |
| 2026-04-19 04:58 | -37.75468 | 144.77051 | 5905 ft | 210 kts | 158° |
| 2026-04-19 04:58 | -37.76789 | 144.77833 | 6396 ft | 209 kts | 159° |
| 2026-04-19 04:58 | -37.78104 | 144.78614 | 6878 ft | 209 kts | 159° |
| 2026-04-19 04:58 | -37.79451 | 144.79230 | 7358 ft | 203 kts | 179° |
| 2026-04-19 04:59 | -37.80783 | 144.78864 | 7856 ft | 195 kts | 207° |
| 2026-04-19 04:59 | -37.82020 | 144.78155 | 8345 ft | 196 kts | 205° |
| 2026-04-19 04:59 | -37.83299 | 144.77545 | 8842 ft | 197 kts | 201° |
| 2026-04-19 04:59 | -37.84607 | 144.76994 | 9348 ft | 199 kts | 202° |
| 2026-04-19 05:00 | -37.85909 | 144.76404 | 9859 ft | 199 kts | 203° |
| 2026-04-19 05:00 | -37.87217 | 144.75822 | 10352 ft | 200 kts | 202° |
| 2026-04-19 05:00 | -37.88529 | 144.75242 | 10823 ft | 200 kts | 203° |
| 2026-04-19 05:00 | -37.89829 | 144.74662 | 11295 ft | 201 kts | 203° |
| 2026-04-19 05:01 | -37.91149 | 144.74075 | 11785 ft | 202 kts | 203° |
| 2026-04-19 05:01 | -37.92472 | 144.73486 | 12280 ft | 202 kts | 203° |
| 2026-04-19 05:01 | -37.93798 | 144.72896 | 12782 ft | 202 kts | 203° |
| 2026-04-19 05:01 | -37.95129 | 144.72302 | 13290 ft | 203 kts | 203° |
| 2026-04-19 05:02 | -37.96466 | 144.71707 | 13808 ft | 204 kts | 203° |
| 2026-04-19 05:02 | -37.97855 | 144.71085 | 13964 ft | 221 kts | 203° |
| 2026-04-19 05:02 | -37.99366 | 144.70413 | 13984 ft | 238 kts | 202° |
| 2026-04-19 05:02 | -38.00974 | 144.69696 | 13994 ft | 251 kts | 202° |
| 2026-04-19 05:03 | -38.02651 | 144.68947 | 13993 ft | 259 kts | 202° |
| 2026-04-19 05:03 | -38.04372 | 144.68180 | 13991 ft | 265 kts | 202° |
| 2026-04-19 05:03 | -38.06098 | 144.67406 | 13992 ft | 268 kts | 202° |
| 2026-04-19 05:03 | -38.07865 | 144.66618 | 13991 ft | 270 kts | 202° |
| 2026-04-19 05:04 | -38.09644 | 144.65821 | 13992 ft | 272 kts | 202° |
| 2026-04-19 05:04 | -38.11432 | 144.65022 | 13991 ft | 273 kts | 202° |
| 2026-04-19 05:04 | -38.13224 | 144.64220 | 13989 ft | 273 kts | 202° |
| 2026-04-19 05:04 | -38.15023 | 144.63430 | 13990 ft | 274 kts | 201° |
| 2026-04-19 05:05 | -38.16838 | 144.62680 | 13989 ft | 274 kts | 201° |
| 2026-04-19 05:05 | -38.18642 | 144.61904 | 13991 ft | 274 kts | 202° |
| 2026-04-19 05:05 | -38.20447 | 144.61127 | 13988 ft | 274 kts | 201° |
| 2026-04-19 05:05 | -38.22258 | 144.60362 | 13991 ft | 274 kts | 201° |
| 2026-04-19 05:06 | -38.24067 | 144.59585 | 13989 ft | 275 kts | 201° |
| 2026-04-19 05:06 | -38.25856 | 144.58819 | 13991 ft | 275 kts | 201° |
| 2026-04-19 05:06 | -38.27675 | 144.58045 | 13995 ft | 276 kts | 201° |
| 2026-04-19 05:06 | -38.29481 | 144.57270 | 13991 ft | 266 kts | 201° |
| 2026-04-19 05:07 | -38.31175 | 144.56556 | 13983 ft | 249 kts | 202° |
| 2026-04-19 05:07 | -38.32781 | 144.55857 | 13978 ft | 240 kts | 202° |
| 2026-04-19 05:07 | -38.34347 | 144.55187 | 13976 ft | 236 kts | 202° |
| 2026-04-19 05:07 | -38.35890 | 144.54525 | 13975 ft | 233 kts | 202° |
| 2026-04-19 05:08 | -38.37421 | 144.53868 | 13976 ft | 232 kts | 202° |
| 2026-04-19 05:08 | -38.40465 | 144.52562 | 13986 ft | 230 kts | 202° |
| 2026-04-19 05:08 | -38.41985 | 144.51908 | 13980 ft | 231 kts | 202° |
| 2026-04-19 05:09 | -38.43506 | 144.51253 | 13980 ft | 231 kts | 202° |
| 2026-04-19 05:09 | -38.45008 | 144.50608 | 13978 ft | 231 kts | 202° |
| 2026-04-19 05:09 | -38.46530 | 144.49953 | 13976 ft | 231 kts | 202° |
| 2026-04-19 05:09 | -38.48049 | 144.49300 | 13978 ft | 230 kts | 202° |
| 2026-04-19 05:10 | -38.49563 | 144.48648 | 13976 ft | 230 kts | 202° |
| 2026-04-19 05:10 | -38.51076 | 144.47996 | 13980 ft | 229 kts | 202° |
| 2026-04-19 05:10 | -38.52585 | 144.47346 | 13976 ft | 229 kts | 202° |
| 2026-04-19 05:10 | -38.54092 | 144.46697 | 13978 ft | 229 kts | 202° |
| 2026-04-19 05:11 | -38.55602 | 144.46048 | 13978 ft | 229 kts | 202° |
| 2026-04-19 05:11 | -38.57108 | 144.45400 | 13980 ft | 229 kts | 202° |
| 2026-04-19 05:11 | -38.58617 | 144.44750 | 13973 ft | 229 kts | 203° |
| 2026-04-19 05:11 | -38.60106 | 144.44108 | 13972 ft | 229 kts | 202° |
| 2026-04-19 05:12 | -38.61616 | 144.43458 | 13977 ft | 229 kts | 203° |
| 2026-04-19 05:12 | -38.63127 | 144.42806 | 13974 ft | 229 kts | 202° |
| 2026-04-19 05:12 | -38.64636 | 144.42156 | 13974 ft | 229 kts | 203° |
| 2026-04-19 05:12 | -38.66146 | 144.41504 | 13974 ft | 229 kts | 203° |
| 2026-04-19 05:13 | -38.67657 | 144.40851 | 13977 ft | 229 kts | 203° |
| 2026-04-19 05:13 | -38.69167 | 144.40200 | 13976 ft | 229 kts | 202° |
| 2026-04-19 05:13 | -38.70678 | 144.39546 | 13976 ft | 229 kts | 203° |
| 2026-04-19 05:13 | -38.72189 | 144.38894 | 13976 ft | 229 kts | 203° |
| 2026-04-19 05:14 | -38.73699 | 144.38240 | 13983 ft | 229 kts | 203° |
| 2026-04-19 05:14 | -38.75212 | 144.37587 | 13978 ft | 230 kts | 203° |
| 2026-04-19 05:14 | -38.76724 | 144.36930 | 13980 ft | 230 kts | 203° |
| 2026-04-19 05:14 | -38.78238 | 144.36276 | 13978 ft | 230 kts | 203° |
| 2026-04-19 05:15 | -38.79753 | 144.35619 | 13982 ft | 230 kts | 203° |
| 2026-04-19 05:15 | -38.81265 | 144.34965 | 13979 ft | 230 kts | 203° |
| 2026-04-19 05:15 | -38.82778 | 144.34308 | 13976 ft | 229 kts | 203° |
| 2026-04-19 05:15 | -38.84289 | 144.33652 | 13979 ft | 229 kts | 203° |
| 2026-04-19 05:16 | -38.85782 | 144.33005 | 13975 ft | 229 kts | 203° |
| 2026-04-19 05:16 | -38.87294 | 144.32347 | 13974 ft | 230 kts | 203° |
| 2026-04-19 05:16 | -38.88809 | 144.31691 | 13974 ft | 230 kts | 203° |
| 2026-04-19 05:16 | -38.90322 | 144.31032 | 13973 ft | 230 kts | 203° |
| 2026-04-19 05:17 | -38.91835 | 144.30374 | 13973 ft | 230 kts | 203° |
| 2026-04-19 05:17 | -38.93349 | 144.29716 | 13974 ft | 230 kts | 203° |
| 2026-04-19 05:17 | -38.94863 | 144.29057 | 13977 ft | 230 kts | 203° |
| 2026-04-19 05:17 | -38.96377 | 144.28398 | 13975 ft | 230 kts | 203° |
| 2026-04-19 05:18 | -38.97890 | 144.27738 | 13977 ft | 230 kts | 203° |
| 2026-04-19 05:18 | -38.99403 | 144.27079 | 13977 ft | 230 kts | 203° |
| 2026-04-19 05:18 | -39.00915 | 144.26420 | 13978 ft | 230 kts | 203° |
| 2026-04-19 05:18 | -39.02408 | 144.25769 | 13977 ft | 229 kts | 203° |
| 2026-04-19 05:19 | -39.03919 | 144.25109 | 13975 ft | 230 kts | 203° |
| 2026-04-19 05:19 | -39.05431 | 144.24449 | 13975 ft | 229 kts | 203° |
| 2026-04-19 05:19 | -39.06944 | 144.23788 | 13987 ft | 230 kts | 203° |
| 2026-04-19 05:19 | -39.08457 | 144.23128 | 13982 ft | 230 kts | 203° |
| 2026-04-19 05:20 | -39.09970 | 144.22466 | 13979 ft | 230 kts | 203° |
| 2026-04-19 05:20 | -39.11481 | 144.21805 | 13981 ft | 230 kts | 203° |
| 2026-04-19 05:20 | -39.12993 | 144.21143 | 13977 ft | 230 kts | 203° |
| 2026-04-19 05:20 | -39.14507 | 144.20481 | 13978 ft | 230 kts | 203° |
| 2026-04-19 05:21 | -39.15999 | 144.19826 | 13980 ft | 230 kts | 203° |
| 2026-04-19 05:21 | -39.17513 | 144.19165 | 13980 ft | 230 kts | 203° |
| 2026-04-19 05:21 | -39.19025 | 144.18500 | 13977 ft | 230 kts | 203° |
| 2026-04-19 05:21 | -39.20540 | 144.17837 | 13978 ft | 230 kts | 203° |
| 2026-04-19 05:22 | -39.22053 | 144.17172 | 13982 ft | 230 kts | 203° |
| 2026-04-19 05:22 | -39.23568 | 144.16507 | 13989 ft | 230 kts | 203° |
| 2026-04-19 05:22 | -39.25036 | 144.15694 | 13627 ft | 233 kts | 218° |
| 2026-04-19 05:22 | -39.26229 | 144.14306 | 12781 ft | 231 kts | 227° |
| 2026-04-19 05:23 | -39.27426 | 144.12912 | 11951 ft | 233 kts | 222° |
| 2026-04-19 05:23 | -39.28734 | 144.11658 | 11154 ft | 235 kts | 219° |
| 2026-04-19 05:23 | -39.30039 | 144.10393 | 10371 ft | 235 kts | 221° |
| 2026-04-19 05:23 | -39.31303 | 144.09100 | 9561 ft | 235 kts | 221° |
| 2026-04-19 05:24 | -39.32605 | 144.07822 | 8729 ft | 235 kts | 220° |
| 2026-04-19 05:24 | -39.33896 | 144.06537 | 7919 ft | 234 kts | 221° |
| 2026-04-19 05:24 | -39.35182 | 144.05252 | 7127 ft | 233 kts | 220° |
| 2026-04-19 05:24 | -39.36466 | 144.03977 | 6334 ft | 232 kts | 221° |
| 2026-04-19 05:25 | -39.37739 | 144.02707 | 5521 ft | 230 kts | 220° |
| 2026-04-19 05:25 | -39.39002 | 144.01446 | 4768 ft | 227 kts | 220° |
| 2026-04-19 05:25 | -39.40208 | 144.00249 | 4341 ft | 210 kts | 221° |
| 2026-04-19 05:25 | -39.41326 | 143.99132 | 3909 ft | 197 kts | 220° |
| 2026-04-19 05:26 | -39.42383 | 143.98076 | 3477 ft | 188 kts | 219° |
| 2026-04-19 05:26 | -39.43385 | 143.97077 | 3043 ft | 181 kts | 221° |
| 2026-04-19 05:26 | -39.44367 | 143.96098 | 2597 ft | 176 kts | 221° |
| 2026-04-19 05:26 | -39.45320 | 143.95141 | 2157 ft | 169 kts | 222° |
| 2026-04-19 05:27 | -39.46209 | 143.94251 | 1923 ft | 163 kts | 221° |
| 2026-04-19 05:27 | -39.47153 | 143.93282 | 1887 ft | 180 kts | 221° |
| 2026-04-19 05:27 | -39.48177 | 143.92277 | 1884 ft | 188 kts | 221° |
| 2026-04-19 05:27 | -39.49228 | 143.91226 | 1884 ft | 193 kts | 220° |
| 2026-04-19 05:28 | -39.50297 | 143.90154 | 1887 ft | 195 kts | 220° |
| 2026-04-19 05:28 | -39.51376 | 143.89072 | 1888 ft | 196 kts | 220° |
| 2026-04-19 05:28 | -39.52456 | 143.87990 | 1888 ft | 196 kts | 221° |
| 2026-04-19 05:28 | -39.53541 | 143.86902 | 1875 ft | 198 kts | 221° |
| 2026-04-19 05:29 | -39.54634 | 143.85808 | 1882 ft | 199 kts | 223° |
| 2026-04-19 05:29 | -39.55711 | 143.84731 | 1887 ft | 198 kts | 222° |
| 2026-04-19 05:29 | -39.56800 | 143.83633 | 1879 ft | 198 kts | 223° |
| 2026-04-19 05:29 | -39.57883 | 143.82547 | 1885 ft | 196 kts | 220° |
| 2026-04-19 05:30 | -39.58963 | 143.81465 | 1885 ft | 196 kts | 222° |
| 2026-04-19 05:30 | -39.60041 | 143.80378 | 1887 ft | 197 kts | 221° |
| 2026-04-19 05:30 | -39.61127 | 143.79287 | 1885 ft | 198 kts | 221° |
| 2026-04-19 05:30 | -39.62217 | 143.78193 | 1886 ft | 199 kts | 220° |
| 2026-04-19 05:31 | -39.63309 | 143.77094 | 1880 ft | 199 kts | 223° |
| 2026-04-19 05:31 | -39.64402 | 143.75993 | 1883 ft | 198 kts | 221° |
| 2026-04-19 05:31 | -39.65493 | 143.74898 | 1882 ft | 198 kts | 221° |
| 2026-04-19 05:31 | -39.66579 | 143.73808 | 1878 ft | 197 kts | 219° |
| 2026-04-19 05:32 | -39.67654 | 143.72732 | 1877 ft | 199 kts | 223° |
| 2026-04-19 05:32 | -39.68733 | 143.71605 | 1879 ft | 199 kts | 219° |
| 2026-04-19 05:32 | -39.69841 | 143.70518 | 1879 ft | 200 kts | 221° |
| 2026-04-19 05:32 | -39.70934 | 143.69415 | 1879 ft | 199 kts | 223° |
| 2026-04-19 05:33 | -39.72028 | 143.68310 | 1881 ft | 200 kts | 218° |
| 2026-04-19 05:33 | -39.73352 | 143.67760 | 1869 ft | 205 kts | 181° |
| 2026-04-19 05:33 | -39.74784 | 143.67897 | 1869 ft | 207 kts | 178° |
| 2026-04-19 05:33 | -39.76222 | 143.67843 | 1872 ft | 205 kts | 187° |
| 2026-04-19 05:34 | -39.77634 | 143.67644 | 1870 ft | 203 kts | 187° |
| 2026-04-19 05:34 | -39.79042 | 143.67509 | 1872 ft | 203 kts | 186° |
| 2026-04-19 05:34 | -39.80447 | 143.67590 | 1863 ft | 206 kts | 163° |
| 2026-04-19 05:34 | -39.81587 | 143.68670 | 1866 ft | 205 kts | 123° |
| 2026-04-19 05:35 | -39.81953 | 143.69772 | 1863 ft | 200 kts | 96° |
| 2026-04-19 05:35 | -39.82082 | 143.72162 | 1726 ft | 208 kts | 101° |
| 2026-04-19 05:35 | -39.82643 | 143.73903 | 1558 ft | 207 kts | 115° |
| 2026-04-19 05:35 | -39.83304 | 143.75549 | 1393 ft | 204 kts | 114° |
| 2026-04-19 05:36 | -39.83899 | 143.77208 | 1210 ft | 201 kts | 109° |
| 2026-04-19 05:36 | -39.84460 | 143.78853 | 1053 ft | 197 kts | 110° |
| 2026-04-19 05:36 | -39.85035 | 143.80460 | 906 ft | 194 kts | 111° |
| 2026-04-19 05:36 | -39.85595 | 143.82048 | 780 ft | 189 kts | 111° |
| 2026-04-19 05:37 | -39.85952 | 143.83012 | 693 ft | 173 kts | 110° |
| 2026-04-19 05:37 | -39.86418 | 143.84372 | 527 ft | 159 kts | 109° |
| 2026-04-19 05:37 | -39.86970 | 143.85987 | 321 ft | 138 kts | 109° |
| 2026-04-19 05:37 | -39.87234 | 143.86728 | 179 ft | 138 kts | 110° |
| 2026-04-19 05:38 | -39.87608 | 143.87782 | 116 ft | 88 kts | 114° |
| 2026-04-19 05:38 | -39.87692 | 143.88026 | 119 ft | 19 kts | 112° |
| 2026-04-19 05:38 | -39.87730 | 143.88136 | 121 ft | 8 kts | 113° |
| 2026-04-19 05:38 | -39.87756 | 143.88218 | 123 ft | 15 kts | 111° |
| 2026-04-19 05:39 | -39.87778 | 143.88269 | 124 ft | 1 kts | 120° |
| 2026-04-19 05:39 | -39.87798 | 143.88304 | 125 ft | 9 kts | 150° |
| 2026-04-19 05:39 | -39.87881 | 143.88268 | 125 ft | 0 kts | 204° |
| 2026-04-19 05:39 | -39.87902 | 143.88256 | 125 ft | 8 kts | 203° |
| 2026-04-19 05:40 | -39.87923 | 143.88233 | 126 ft | 6 kts | 235° |
| 2026-04-19 05:40 | -39.87935 | 143.88211 | 128 ft | 0 kts | 237° |
| 2026-04-19 05:40 | -39.87936 | 143.88210 | 128 ft | 0 kts | 233° |
| 2026-04-19 05:56 | -39.87937 | 143.88202 | 126 ft | 2 kts | 273° |
| 2026-04-19 05:57 | -39.87920 | 143.88215 | 125 ft | 8 kts | 74° |
| 2026-04-19 05:57 | -39.87859 | 143.88281 | 124 ft | 17 kts | 23° |
| 2026-04-19 05:57 | -39.87816 | 143.88399 | 124 ft | 18 kts | 114° |
| 2026-04-19 05:57 | -39.87879 | 143.88587 | 132 ft | 24 kts | 112° |
| 2026-04-19 05:58 | -39.87905 | 143.88663 | 135 ft | 1 kts | 113° |
| 2026-04-19 05:58 | -39.87913 | 143.88697 | 136 ft | 3 kts | 136° |
| 2026-04-19 05:58 | -39.87915 | 143.88661 | 136 ft | 5 kts | 300° |
| 2026-04-19 06:00 | -39.87910 | 143.88649 | 130 ft | 14 kts | 296° |
| 2026-04-19 06:00 | -39.87764 | 143.88239 | 121 ft | 82 kts | 299° |
| 2026-04-19 06:00 | -39.87295 | 143.87471 | 782 ft | 238 kts | 315° |
| 2026-04-19 06:01 | -39.86301 | 143.85931 | 1240 ft | 195 kts | 313° |
| 2026-04-19 06:01 | -39.85399 | 143.84761 | 1516 ft | 171 kts | 335° |
| 2026-04-19 06:01 | -39.84227 | 143.84651 | 1987 ft | 177 kts | 18° |
| 2026-04-19 06:01 | -39.83300 | 143.85699 | 2459 ft | 183 kts | 58° |
| 2026-04-19 06:02 | -39.82786 | 143.87233 | 2901 ft | 187 kts | 64° |
| 2026-04-19 06:02 | -39.82249 | 143.88879 | 3333 ft | 205 kts | 65° |
| 2026-04-19 06:02 | -39.81692 | 143.90635 | 3761 ft | 214 kts | 65° |
| 2026-04-19 06:02 | -39.80784 | 143.92150 | 4178 ft | 216 kts | 32° |
| 2026-04-19 06:03 | -39.79400 | 143.92809 | 4605 ft | 217 kts | 8° |
| 2026-04-19 06:03 | -39.77926 | 143.93321 | 5054 ft | 222 kts | 16° |
| 2026-04-19 06:03 | -39.76482 | 143.94086 | 5482 ft | 226 kts | 20° |
| 2026-04-19 06:03 | -39.75027 | 143.94885 | 5911 ft | 228 kts | 18° |
| 2026-04-19 06:04 | -39.73547 | 143.95639 | 6348 ft | 230 kts | 18° |
| 2026-04-19 06:04 | -39.72062 | 143.96431 | 6771 ft | 231 kts | 18° |
| 2026-04-19 06:04 | -39.70563 | 143.97220 | 7181 ft | 233 kts | 18° |
| 2026-04-19 06:04 | -39.69052 | 143.98011 | 7598 ft | 235 kts | 18° |
| 2026-04-19 06:05 | -39.67532 | 143.98812 | 8022 ft | 237 kts | 18° |
| 2026-04-19 06:05 | -39.66001 | 143.99615 | 8445 ft | 238 kts | 18° |
| 2026-04-19 06:05 | -39.64462 | 144.00424 | 8878 ft | 239 kts | 18° |
| 2026-04-19 06:05 | -39.62935 | 144.01226 | 9309 ft | 241 kts | 18° |
| 2026-04-19 06:06 | -39.61380 | 144.02041 | 9752 ft | 242 kts | 18° |
| 2026-04-19 06:06 | -39.59814 | 144.02861 | 10186 ft | 243 kts | 18° |
| 2026-04-19 06:06 | -39.58244 | 144.03685 | 10591 ft | 244 kts | 18° |
| 2026-04-19 06:06 | -39.56662 | 144.04513 | 11000 ft | 246 kts | 18° |
| 2026-04-19 06:07 | -39.55069 | 144.05347 | 11411 ft | 248 kts | 18° |
| 2026-04-19 06:07 | -39.53465 | 144.06186 | 11832 ft | 249 kts | 19° |
| 2026-04-19 06:07 | -39.51850 | 144.07032 | 12251 ft | 251 kts | 18° |
| 2026-04-19 06:07 | -39.50222 | 144.07881 | 12679 ft | 253 kts | 19° |
| 2026-04-19 06:08 | -39.48584 | 144.08738 | 13109 ft | 255 kts | 18° |
| 2026-04-19 06:08 | -39.46933 | 144.09599 | 13549 ft | 257 kts | 19° |
| 2026-04-19 06:08 | -39.45269 | 144.10468 | 13992 ft | 259 kts | 18° |
| 2026-04-19 06:08 | -39.43613 | 144.11331 | 14389 ft | 260 kts | 19° |
| 2026-04-19 06:09 | -39.41929 | 144.12210 | 14794 ft | 262 kts | 19° |
| 2026-04-19 06:09 | -39.40234 | 144.13093 | 15199 ft | 263 kts | 19° |
| 2026-04-19 06:09 | -39.38536 | 144.13978 | 15605 ft | 263 kts | 19° |
| 2026-04-19 06:09 | -39.36834 | 144.14863 | 16022 ft | 264 kts | 19° |
| 2026-04-19 06:10 | -39.35132 | 144.15749 | 16444 ft | 264 kts | 19° |